| time (UTC) | temp C | wind direction | speed KPH | gust KPH | rain 1hr cm | rain 24hr cm | rain mn cm | humidity % | barometer mb |
| 20260507150248 | 25 | 30 | 0.0 | 0.0 | 0.00 | 0.00 | 0.00 | 29 | 1017.6 |
| 20260507145748 | 25 | 350 | 0.0 | 0.0 | 0.00 | 0.00 | 0.00 | 29 | 1017.3 |
| 20260507145248 | 25 | 270 | 0.0 | 0.0 | 0.00 | 0.00 | 0.00 | 31 | 1017.3 |
| 20260507144747 | 25 | 48 | 0.0 | 0.0 | 0.00 | 0.00 | 0.00 | 30 | 1017.3 |
| 20260507144248 | 25 | 338 | 0.0 | 0.0 | 0.00 | 0.00 | 0.00 | 29 | 1017.6 |
| 20260507143748 | 25 | 64 | 0.0 | 0.0 | 0.00 | 0.00 | 0.00 | 30 | 1017.6 |
| 20260507143248 | 25 | 227 | 0.0 | 0.0 | 0.00 | 0.00 | 0.00 | 31 | 1017.6 |
| 20260507142748 | 25 | 216 | 0.0 | 0.0 | 0.00 | 0.00 | 0.00 | 28 | 1017.6 |
| 20260507142248 | 25 | 299 | 0.0 | 0.0 | 0.00 | 0.00 | 0.00 | 32 | 1017.3 |
| 20260507141748 | 26 | 287 | 0.0 | 0.0 | 0.00 | 0.00 | 0.00 | 30 | 1017.6 |
| 20260507141256 | 25 | 274 | 0.0 | 0.0 | 0.00 | 0.00 | 0.00 | 31 | 1017.3 |
| 20260507140748 | 26 | 126 | 0.0 | 0.0 | 0.00 | 0.00 | 0.00 | 33 | 1017.3 |
| 20260507140247 | 25 | 186 | 0.0 | 0.0 | 0.00 | 0.00 | 0.00 | 35 | 1017.3 |
| 20260507135748 | 25 | 30 | 0.0 | 0.0 | 0.00 | 0.00 | 0.00 | 35 | 1017.6 |
| 20260507135248 | 25 | 60 | 4.8 | 4.8 | 0.00 | 0.00 | 0.00 | 36 | 1017.6 |
| 20260507134748 | 25 | 72 | 4.8 | 4.8 | 0.00 | 0.00 | 0.00 | 35 | 1017.3 |
| 20260507134248 | 25 | 90 | 0.0 | 0.0 | 0.00 | 0.00 | 0.00 | 34 | 1017.3 |
| 20260507133748 | 25 | 306 | 0.0 | 0.0 | 0.00 | 0.00 | 0.00 | 37 | 1017.6 |
| 20260507133248 | 24 | 282 | 3.2 | 3.2 | 0.00 | 0.00 | 0.00 | 36 | 1017.6 |
| 20260507132748 | 23 | 44 | 0.0 | 0.0 | 0.00 | 0.00 | 0.00 | 35 | 1017.6 |
| 20260507132249 | 24 | 217 | 3.2 | 3.2 | 0.00 | 0.00 | 0.00 | 36 | 1017.6 |
| 20260507131747 | 23 | 276 | 3.2 | 3.2 | 0.00 | 0.00 | 0.00 | 36 | 1017.6 |
| 20260507131248 | 23 | 282 | 4.8 | 4.8 | 0.00 | 0.00 | 0.00 | 35 | 1017.9 |
| 20260507130747 | 24 | 293 | 4.8 | 4.8 | 0.00 | 0.00 | 0.00 | 37 | 1017.6 |
| 20260507130249 | 23 | 239 | 1.6 | 1.6 | 0.00 | 0.00 | 0.00 | 36 | 1017.9 |
| 20260507125748 | 23 | 282 | 4.8 | 4.8 | 0.00 | 0.00 | 0.00 | 37 | 1017.9 |
| 20260507125247 | 23 | 293 | 3.2 | 3.2 | 0.00 | 0.00 | 0.00 | 37 | 1017.9 |
| 20260507124748 | 23 | 210 | 6.4 | 8.0 | 0.00 | 0.00 | 0.00 | 39 | 1017.9 |
| 20260507124247 | 23 | 258 | 0.0 | 0.0 | 0.00 | 0.00 | 0.00 | 37 | 1017.9 |
| 20260507123747 | 23 | 236 | 3.2 | 3.2 | 0.00 | 0.00 | 0.00 | 37 | 1017.6 |
| 20260507123248 | 23 | 190 | 6.4 | 8.0 | 0.00 | 0.00 | 0.00 | 39 | 1017.9 |
| 20260507122747 | 23 | 222 | 8.0 | 8.0 | 0.00 | 0.00 | 0.00 | 39 | 1017.9 |
| 20260507122247 | 23 | 145 | 3.2 | 3.2 | 0.00 | 0.00 | 0.00 | 38 | 1017.9 |
| 20260507121747 | 23 | 250 | 4.8 | 4.8 | 0.00 | 0.00 | 0.00 | 40 | 1017.9 |
| 20260507121248 | 23 | 223 | 4.8 | 4.8 | 0.00 | 0.00 | 0.00 | 39 | 1017.9 |
| 20260507120747 | 23 | 210 | 8.0 | 11.3 | 0.00 | 0.00 | 0.00 | 39 | 1017.9 |
| 20260507120247 | 23 | 254 | 3.2 | 3.2 | 0.00 | 0.00 | 0.00 | 39 | 1018.3 |
| 20260507115747 | 23 | 194 | 4.8 | 4.8 | 0.00 | 0.00 | 0.00 | 40 | 1018.3 |
| 20260507115249 | 23 | 228 | 0.0 | 0.0 | 0.00 | 0.00 | 0.00 | 38 | 1018.3 |
| 20260507114748 | 24 | 265 | 0.0 | 0.0 | 0.00 | 0.00 | 0.00 | 39 | 1018.3 |
| 20260507114248 | 24 | 70 | 0.0 | 0.0 | 0.00 | 0.00 | 0.00 | 36 | 1018.3 |
| 20260507113748 | 23 | 328 | 1.6 | 1.6 | 0.00 | 0.00 | 0.00 | 37 | 1018.3 |
| 20260507113247 | 23 | 184 | 8.0 | 8.0 | 0.00 | 0.00 | 0.00 | 38 | 1018.3 |
| 20260507112748 | 23 | 286 | 3.2 | 3.2 | 0.00 | 0.00 | 0.00 | 38 | 1018.6 |
| 20260507112248 | 24 | 150 | 1.6 | 1.6 | 0.00 | 0.00 | 0.00 | 39 | 1018.6 |
| 20260507111748 | 24 | 8 | 0.0 | 0.0 | 0.00 | 0.00 | 0.00 | 38 | 1018.6 |
| 20260507111247 | 24 | 114 | 0.0 | 0.0 | 0.00 | 0.00 | 0.00 | 36 | 1018.6 |
| 20260507110747 | 22 | 78 | 0.0 | 0.0 | 0.00 | 0.00 | 0.00 | 37 | 1018.6 |
| 20260507110248 | 22 | 162 | 4.8 | 4.8 | 0.00 | 0.00 | 0.00 | 41 | 1018.6 |
| 20260507105747 | 22 | 154 | 3.2 | 3.2 | 0.00 | 0.00 | 0.00 | 40 | 1019.0 |
| 20260507105248 | 22 | 138 | 1.6 | 1.6 | 0.00 | 0.00 | 0.00 | 40 | 1019.0 |
| 20260507104748 | 22 | 212 | 4.8 | 4.8 | 0.00 | 0.00 | 0.00 | 40 | 1019.0 |
| 20260507104247 | 22 | 245 | 3.2 | 3.2 | 0.00 | 0.00 | 0.00 | 41 | 1019.0 |
| 20260507103747 | 22 | 127 | 4.8 | 6.4 | 0.00 | 0.00 | 0.00 | 41 | 1019.0 |
| 20260507103248 | 22 | 236 | 8.0 | 11.3 | 0.00 | 0.00 | 0.00 | 42 | 1019.0 |
| 20260507102748 | 22 | 65 | 1.6 | 1.6 | 0.00 | 0.00 | 0.00 | 43 | 1019.0 |
| 20260507102247 | 22 | 150 | 6.4 | 6.4 | 0.00 | 0.00 | 0.00 | 45 | 1019.0 |
| 20260507101747 | 22 | 239 | 3.2 | 3.2 | 0.00 | 0.00 | 0.00 | 43 | 1019.0 |
| 20260507101247 | 22 | 134 | 0.0 | 0.0 | 0.00 | 0.00 | 0.00 | 44 | 1019.3 |
| 20260507100747 | 22 | 127 | 6.4 | 6.4 | 0.00 | 0.00 | 0.00 | 44 | 1019.0 |
| 20260507100247 | 22 | 151 | 4.8 | 4.8 | 0.00 | 0.00 | 0.00 | 44 | 1019.0 |
| 20260507095747 | 21 | 186 | 4.8 | 4.8 | 0.00 | 0.00 | 0.00 | 45 | 1019.3 |
| 20260507095247 | 20 | 168 | 3.2 | 3.2 | 0.00 | 0.00 | 0.00 | 47 | 1019.3 |
| 20260507094747 | 21 | 205 | 12.9 | 12.9 | 0.00 | 0.00 | 0.00 | 46 | 1019.3 |
| 20260507094248 | 21 | 222 | 12.9 | 14.5 | 0.00 | 0.00 | 0.00 | 46 | 1019.3 |
| 20260507093748 | 21 | 198 | 6.4 | 6.4 | 0.00 | 0.00 | 0.00 | 44 | 1019.3 |
| 20260507093248 | 21 | 204 | 8.0 | 8.0 | 0.00 | 0.00 | 0.00 | 45 | 1019.6 |
| 20260507092747 | 20 | 151 | 8.0 | 8.0 | 0.00 | 0.00 | 0.00 | 44 | 1019.6 |
| 20260507092249 | 20 | 234 | 4.8 | 4.8 | 0.00 | 0.00 | 0.00 | 47 | 1020.0 |
| 20260507091747 | 21 | 156 | 6.4 | 6.4 | 0.00 | 0.00 | 0.00 | 47 | 1019.6 |
| 20260507091247 | 20 | 112 | 3.2 | 3.2 | 0.00 | 0.00 | 0.00 | 47 | 1019.6 |
| 20260507090748 | 20 | 223 | 3.2 | 3.2 | 0.00 | 0.00 | 0.00 | 47 | 1019.6 |
| 20260507090247 | 20 | 288 | 3.2 | 3.2 | 0.00 | 0.00 | 0.00 | 46 | 1020.0 |
| 20260507085747 | 21 | 138 | 4.8 | 4.8 | 0.00 | 0.00 | 0.00 | 47 | 1020.0 |
| 20260507085247 | 20 | 211 | 6.4 | 8.0 | 0.00 | 0.00 | 0.00 | 48 | 1020.0 |
| 20260507084748 | 20 | 180 | 8.0 | 8.0 | 0.00 | 0.00 | 0.00 | 47 | 1020.0 |
| 20260507084247 | 21 | 119 | 4.8 | 4.8 | 0.00 | 0.00 | 0.00 | 49 | 1020.0 |
| 20260507083747 | 20 | 161 | 6.4 | 6.4 | 0.00 | 0.00 | 0.00 | 47 | 1020.0 |
| 20260507083248 | 20 | 205 | 8.0 | 8.0 | 0.00 | 0.00 | 0.00 | 52 | 1020.0 |
| 20260507082747 | 20 | 143 | 1.6 | 1.6 | 0.00 | 0.00 | 0.00 | 49 | 1020.0 |
| 20260507082247 | 19 | 199 | 6.4 | 6.4 | 0.00 | 0.00 | 0.00 | 53 | 1020.3 |
| 20260507081747 | 19 | 186 | 6.4 | 8.0 | 0.00 | 0.00 | 0.00 | 51 | 1020.3 |
| 20260507081247 | 19 | 41 | 0.0 | 0.0 | 0.00 | 0.00 | 0.00 | 54 | 1020.0 |
| 20260507080747 | 18 | 211 | 8.0 | 9.7 | 0.00 | 0.00 | 0.00 | 54 | 1020.0 |
| 20260507080247 | 19 | 132 | 1.6 | 1.6 | 0.00 | 0.00 | 0.00 | 54 | 1020.3 |
| 20260507075747 | 18 | 0 | 6.4 | 6.4 | 0.00 | 0.00 | 0.00 | 57 | 1020.3 |
| 20260507075248 | 18 | 156 | 4.8 | 4.8 | 0.00 | 0.00 | 0.00 | 59 | 1020.3 |
| 20260507074748 | 18 | 199 | 6.4 | 6.4 | 0.00 | 0.00 | 0.00 | 60 | 1020.3 |
| 20260507074247 | 18 | 242 | 3.2 | 3.2 | 0.00 | 0.00 | 0.00 | 60 | 1020.3 |
| 20260507073748 | 17 | 160 | 8.0 | 8.0 | 0.00 | 0.00 | 0.00 | 60 | 1020.3 |
| 20260507073247 | 18 | 152 | 3.2 | 3.2 | 0.00 | 0.00 | 0.00 | 58 | 1020.3 |
| 20260507072748 | 17 | 258 | 3.2 | 3.2 | 0.00 | 0.00 | 0.00 | 60 | 1020.3 |
| 20260507072251 | 17 | 222 | 11.3 | 11.3 | 0.00 | 0.00 | 0.00 | 63 | 1020.3 |
| 20260507071748 | 17 | 137 | 6.4 | 6.4 | 0.00 | 0.00 | 0.00 | 63 | 1020.0 |
| 20260507071248 | 17 | 221 | 8.0 | 8.0 | 0.00 | 0.00 | 0.00 | 64 | 1020.0 |
| 20260507070748 | 17 | 176 | 9.7 | 11.3 | 0.00 | 0.00 | 0.00 | 64 | 1020.3 |
| 20260507070247 | 17 | 286 | 6.4 | 6.4 | 0.00 | 0.00 | 0.00 | 64 | 1020.3 |
| 20260507065748 | 17 | 126 | 4.8 | 6.4 | 0.00 | 0.00 | 0.00 | 61 | 1020.3 |
| 20260507065247 | 17 | 185 | 4.8 | 6.4 | 0.00 | 0.00 | 0.00 | 64 | 1020.3 |
| 20260507064747 | 16 | 84 | 0.0 | 0.0 | 0.00 | 0.00 | 0.00 | 65 | 1020.3 |
| 20260507064247 | 16 | 221 | 8.0 | 8.0 | 0.00 | 0.00 | 0.00 | 67 | 1020.7 |
| 20260507063747 | 16 | 217 | 8.0 | 9.7 | 0.00 | 0.00 | 0.00 | 67 | 1020.7 |
| 20260507063247 | 15 | 176 | 3.2 | 3.2 | 0.00 | 0.00 | 0.00 | 67 | 1020.3 |
| 20260507062747 | 15 | 147 | 3.2 | 3.2 | 0.00 | 0.00 | 0.00 | 70 | 1020.7 |
| 20260507062248 | 15 | 198 | 8.0 | 9.7 | 0.00 | 0.00 | 0.00 | 69 | 1020.3 |
| 20260507061748 | 15 | 180 | 4.8 | 4.8 | 0.00 | 0.00 | 0.00 | 70 | 1020.7 |
| 20260507061249 | 15 | 156 | 8.0 | 8.0 | 0.00 | 0.00 | 0.00 | 70 | 1020.7 |
| 20260507060748 | 15 | 167 | 4.8 | 4.8 | 0.00 | 0.00 | 0.00 | 72 | 1020.7 |
| 20260507060247 | 15 | 222 | 3.2 | 3.2 | 0.00 | 0.00 | 0.00 | 70 | 1020.7 |
| 20260507055748 | 15 | 146 | 4.8 | 4.8 | 0.00 | 0.00 | 0.00 | 70 | 1020.7 |
| 20260507055247 | 14 | 144 | 4.8 | 4.8 | 0.00 | 0.00 | 0.00 | 70 | 1020.3 |
| 20260507054747 | 14 | 186 | 4.8 | 4.8 | 0.00 | 0.00 | 0.00 | 70 | 1020.3 |
| 20260507054249 | 14 | 277 | 3.2 | 3.2 | 0.00 | 0.00 | 0.00 | 71 | 1020.7 |
| 20260507053747 | 14 | 155 | 4.8 | 4.8 | 0.00 | 0.00 | 0.00 | 73 | 1020.3 |
| 20260507053248 | 14 | 165 | 3.2 | 3.2 | 0.00 | 0.00 | 0.00 | 74 | 1020.7 |
| 20260507052747 | 13 | 138 | 3.2 | 3.2 | 0.00 | 0.00 | 0.00 | 75 | 1020.3 |
| 20260507052247 | 14 | 210 | 9.7 | 11.3 | 0.00 | 0.00 | 0.00 | 74 | 1020.3 |
| 20260507051747 | 14 | 282 | 3.2 | 3.2 | 0.00 | 0.00 | 0.00 | 72 | 1020.3 |
| 20260507051247 | 14 | 136 | 0.0 | 0.0 | 0.00 | 0.00 | 0.00 | 71 | 1020.3 |
| 20260507050747 | 15 | 182 | 0.0 | 0.0 | 0.00 | 0.00 | 0.00 | 70 | 1020.3 |
| 20260507050248 | 15 | 162 | 0.0 | 0.0 | 0.00 | 0.00 | 0.00 | 69 | 1020.0 |
| 20260507045748 | 14 | 126 | 0.0 | 0.0 | 0.00 | 0.00 | 0.00 | 71 | 1020.0 |
| 20260507045247 | 14 | 162 | 1.6 | 1.6 | 0.00 | 0.00 | 0.00 | 70 | 1020.0 |
| 20260507044748 | 13 | 91 | 0.0 | 0.0 | 0.00 | 0.00 | 0.00 | 70 | 1020.3 |
| 20260507044248 | 13 | 171 | 0.0 | 0.0 | 0.00 | 0.00 | 0.00 | 74 | 1020.0 |
| 20260507043749 | 13 | 102 | 0.0 | 0.0 | 0.00 | 0.00 | 0.00 | 74 | 1020.0 |
| 20260507043248 | 12 | 142 | 1.6 | 1.6 | 0.00 | 0.00 | 0.00 | 74 | 1020.0 |
| 20260507042748 | 12 | 138 | 0.0 | 0.0 | 0.00 | 0.00 | 0.00 | 76 | 1020.0 |
| 20260507042247 | 12 | 192 | 0.0 | 0.0 | 0.00 | 0.00 | 0.00 | 77 | 1020.0 |
| 20260507041751 | 12 | 144 | 0.0 | 0.0 | 0.00 | 0.00 | 0.00 | 75 | 1020.0 |
| 20260507041249 | 12 | 126 | 0.0 | 0.0 | 0.00 | 0.00 | 0.00 | 78 | 1020.0 |
| 20260507040747 | 12 | 78 | 0.0 | 0.0 | 0.00 | 0.00 | 0.00 | 79 | 1020.0 |
| 20260507040249 | 12 | 159 | 0.0 | 0.0 | 0.00 | 0.00 | 0.00 | 80 | 1020.0 |
| 20260507035748 | 11 | 108 | 0.0 | 0.0 | 0.00 | 0.00 | 0.00 | 81 | 1019.6 |
| 20260507035248 | 11 | 150 | 1.6 | 1.6 | 0.00 | 0.00 | 0.00 | 82 | 1020.0 |
| 20260507034748 | 11 | 90 | 0.0 | 0.0 | 0.00 | 0.00 | 0.00 | 81 | 1019.6 |
| 20260507034247 | 11 | 36 | 0.0 | 0.0 | 0.00 | 0.00 | 0.00 | 81 | 1019.6 |
| 20260507033747 | 11 | 6 | 0.0 | 0.0 | 0.00 | 0.00 | 0.00 | 82 | 1019.6 |
| 20260507033247 | 10 | 197 | 0.0 | 0.0 | 0.00 | 0.00 | 0.00 | 85 | 1019.6 |
| 20260507032749 | 10 | 203 | 0.0 | 0.0 | 0.00 | 0.00 | 0.00 | 86 | 1019.3 |
| 20260507032248 | 10 | 270 | 0.0 | 0.0 | 0.00 | 0.00 | 0.00 | 86 | 1019.3 |
| 20260507031747 | 10 | 246 | 0.0 | 0.0 | 0.00 | 0.00 | 0.00 | 85 | 1019.6 |
| 20260507031249 | 10 | 272 | 0.0 | 0.0 | 0.00 | 0.00 | 0.00 | 85 | 1019.3 |
| 20260507030748 | 10 | 213 | 0.0 | 0.0 | 0.00 | 0.00 | 0.00 | 85 | 1019.3 |
| 20260507030250 | 10 | 204 | 0.0 | 0.0 | 0.00 | 0.00 | 0.00 | 86 | 1019.3 |
| 20260507025748 | 10 | 234 | 1.6 | 1.6 | 0.00 | 0.00 | 0.00 | 86 | 1019.3 |
| 20260507025247 | 10 | 225 | 1.6 | 1.6 | 0.00 | 0.00 | 0.00 | 86 | 1019.3 |
| 20260507024748 | 10 | 171 | 1.6 | 1.6 | 0.00 | 0.00 | 0.00 | 86 | 1019.3 |
| 20260507024248 | 10 | 96 | 0.0 | 0.0 | 0.00 | 0.00 | 0.00 | 86 | 1019.0 |
| 20260507023748 | 10 | 186 | 0.0 | 0.0 | 0.00 | 0.00 | 0.00 | 86 | 1019.0 |
| 20260507023248 | 10 | 96 | 0.0 | 0.0 | 0.00 | 0.00 | 0.00 | 86 | 1019.0 |
| 20260507022747 | 10 | 240 | 0.0 | 0.0 | 0.00 | 0.00 | 0.00 | 86 | 1019.3 |
| 20260507022248 | 10 | 216 | 0.0 | 0.0 | 0.00 | 0.00 | 0.00 | 85 | 1019.0 |
| 20260507021748 | 10 | 156 | 0.0 | 0.0 | 0.00 | 0.00 | 0.00 | 85 | 1019.0 |
| 20260507021252 | 10 | 259 | 0.0 | 0.0 | 0.00 | 0.00 | 0.00 | 85 | 1019.0 |
| 20260507020748 | 10 | 36 | 0.0 | 0.0 | 0.00 | 0.00 | 0.00 | 83 | 1019.0 |
| 20260507020247 | 10 | 90 | 0.0 | 0.0 | 0.00 | 0.00 | 0.00 | 84 | 1019.0 |
| 20260507015748 | 10 | 60 | 1.6 | 1.6 | 0.00 | 0.00 | 0.00 | 84 | 1019.0 |
| 20260507015248 | 10 | 72 | 0.0 | 0.0 | 0.00 | 0.00 | 0.00 | 84 | 1018.6 |
| 20260507014747 | 10 | 187 | 0.0 | 0.0 | 0.00 | 0.00 | 0.00 | 84 | 1019.0 |
| 20260507014248 | 11 | 216 | 0.0 | 0.0 | 0.00 | 0.00 | 0.00 | 84 | 1019.0 |
| 20260507013748 | 11 | 225 | 0.0 | 0.0 | 0.00 | 0.00 | 0.00 | 82 | 1018.6 |
| 20260507013247 | 11 | 203 | 4.8 | 4.8 | 0.00 | 0.00 | 0.00 | 82 | 1019.0 |
| 20260507012748 | 11 | 204 | 8.0 | 8.0 | 0.00 | 0.00 | 0.00 | 81 | 1018.6 |
| 20260507012247 | 11 | 248 | 1.6 | 1.6 | 0.00 | 0.00 | 0.00 | 79 | 1019.0 |
| 20260507011748 | 11 | 234 | 3.2 | 3.2 | 0.00 | 0.00 | 0.00 | 80 | 1018.6 |
| 20260507011248 | 11 | 174 | 0.0 | 0.0 | 0.00 | 0.00 | 0.00 | 81 | 1018.6 |
| 20260507010747 | 11 | 288 | 0.0 | 0.0 | 0.00 | 0.00 | 0.00 | 82 | 1018.6 |
| 20260507010247 | 11 | 177 | 0.0 | 0.0 | 0.00 | 0.00 | 0.00 | 82 | 1018.3 |
| 20260507005748 | 11 | 355 | 0.0 | 0.0 | 0.00 | 0.00 | 0.00 | 81 | 1018.6 |
| 20260507005247 | 11 | 180 | 0.0 | 0.0 | 0.00 | 0.00 | 0.00 | 81 | 1018.6 |
| 20260507004747 | 11 | 192 | 0.0 | 0.0 | 0.00 | 0.00 | 0.00 | 80 | 1018.6 |
| 20260507004247 | 11 | 192 | 0.0 | 0.0 | 0.00 | 0.00 | 0.00 | 80 | 1018.6 |
| 20260507003748 | 11 | 6 | 0.0 | 0.0 | 0.00 | 0.00 | 0.00 | 80 | 1018.6 |
| 20260507003247 | 12 | 159 | 1.6 | 1.6 | 0.00 | 0.00 | 0.00 | 78 | 1018.3 |
| 20260507002747 | 12 | 198 | 1.6 | 1.6 | 0.00 | 0.00 | 0.00 | 77 | 1018.3 |
| 20260507002248 | 12 | 240 | 0.0 | 0.0 | 0.00 | 0.00 | 0.00 | 77 | 1018.3 |
| 20260507001747 | 12 | 204 | 0.0 | 0.0 | 0.00 | 0.00 | 0.00 | 76 | 1018.3 |
| 20260507001248 | 12 | 222 | 1.6 | 1.6 | 0.00 | 0.00 | 0.00 | 76 | 1018.6 |
| 20260507000747 | 12 | 130 | 0.0 | 0.0 | 0.00 | 0.00 | 0.00 | 76 | 1018.3 |
| 20260507000247 | 12 | 188 | 3.2 | 3.2 | 0.00 | 0.00 | 0.00 | 75 | 1018.3 |
| 20260506235747 | 12 | 220 | 3.2 | 3.2 | 0.00 | 0.00 | 0.00 | 74 | 1018.3 |
| 20260506235247 | 12 | 150 | 3.2 | 3.2 | 0.00 | 0.00 | 0.00 | 74 | 1018.6 |
| 20260506234748 | 13 | 192 | 4.8 | 4.8 | 0.00 | 0.00 | 0.00 | 73 | 1018.3 |
| 20260506234248 | 13 | 120 | 0.0 | 0.0 | 0.00 | 0.00 | 0.00 | 73 | 1018.6 |
| 20260506233748 | 13 | 176 | 0.0 | 0.0 | 0.00 | 0.00 | 0.00 | 72 | 1018.3 |
| 20260506233247 | 13 | 252 | 0.0 | 0.0 | 0.00 | 0.00 | 0.00 | 70 | 1018.3 |
| 20260506232748 | 13 | 234 | 0.0 | 0.0 | 0.00 | 0.00 | 0.00 | 71 | 1018.3 |
| 20260506232247 | 13 | 342 | 4.8 | 4.8 | 0.00 | 0.00 | 0.00 | 69 | 1018.6 |
| 20260506231748 | 13 | 276 | 8.0 | 9.7 | 0.00 | 0.00 | 0.00 | 70 | 1018.3 |
| 20260506231248 | 13 | 336 | 4.8 | 4.8 | 0.00 | 0.00 | 0.00 | 68 | 1018.3 |
| 20260506230748 | 14 | 348 | 6.4 | 6.4 | 0.00 | 0.00 | 0.00 | 69 | 1018.3 |
| 20260506230248 | 14 | 287 | 6.4 | 6.4 | 0.00 | 0.00 | 0.00 | 68 | 1018.3 |
| 20260506225747 | 14 | 294 | 1.6 | 1.6 | 0.00 | 0.00 | 0.00 | 68 | 1018.3 |
| 20260506225249 | 14 | 6 | 8.0 | 8.0 | 0.00 | 0.00 | 0.00 | 68 | 1018.3 |
| 20260506224748 | 14 | 30 | 1.6 | 1.6 | 0.00 | 0.00 | 0.00 | 67 | 1018.3 |
| 20260506224248 | 14 | 34 | 1.6 | 1.6 | 0.00 | 0.00 | 0.00 | 67 | 1018.6 |
| 20260506223747 | 14 | 1 | 4.8 | 4.8 | 0.00 | 0.00 | 0.00 | 68 | 1018.3 |
| 20260506223248 | 14 | 48 | 1.6 | 1.6 | 0.00 | 0.00 | 0.00 | 67 | 1018.3 |
| 20260506222747 | 14 | 6 | 1.6 | 1.6 | 0.00 | 0.00 | 0.00 | 68 | 1018.6 |
| 20260506222248 | 14 | 354 | 4.8 | 4.8 | 0.00 | 0.00 | 0.00 | 69 | 1018.3 |
| 20260506221748 | 14 | 54 | 1.6 | 1.6 | 0.00 | 0.00 | 0.00 | 67 | 1018.3 |
| 20260506221247 | 14 | 300 | 1.6 | 1.6 | 0.00 | 0.00 | 0.00 | 67 | 1018.3 |
| 20260506220753 | 14 | 6 | 4.8 | 4.8 | 0.00 | 0.00 | 0.00 | 66 | 1018.3 |
| 20260506220248 | 14 | 30 | 4.8 | 4.8 | 0.00 | 0.00 | 0.00 | 65 | 1018.6 |
| 20260506215747 | 14 | 168 | 3.2 | 3.2 | 0.00 | 0.00 | 0.00 | 68 | 1018.6 |
| 20260506215248 | 14 | 1 | 4.8 | 6.4 | 0.00 | 0.00 | 0.00 | 69 | 1018.6 |
| 20260506214748 | 14 | 324 | 4.8 | 4.8 | 0.00 | 0.00 | 0.00 | 69 | 1018.6 |
| 20260506214251 | 14 | 48 | 6.4 | 8.0 | 0.00 | 0.00 | 0.00 | 68 | 1018.6 |
| 20260506213748 | 14 | 30 | 4.8 | 4.8 | 0.00 | 0.00 | 0.00 | 67 | 1018.6 |
| 20260506213247 | 15 | 48 | 3.2 | 3.2 | 0.00 | 0.00 | 0.00 | 66 | 1018.6 |
| 20260506212748 | 15 | 316 | 1.6 | 1.6 | 0.00 | 0.00 | 0.00 | 65 | 1018.6 |
| 20260506212248 | 15 | 348 | 6.4 | 8.0 | 0.00 | 0.00 | 0.00 | 64 | 1018.6 |
| 20260506211748 | 15 | 48 | 3.2 | 3.2 | 0.00 | 0.00 | 0.00 | 61 | 1018.6 |
| 20260506211247 | 15 | 342 | 4.8 | 4.8 | 0.00 | 0.00 | 0.00 | 64 | 1018.6 |
| 20260506210748 | 15 | 324 | 3.2 | 3.2 | 0.00 | 0.00 | 0.00 | 66 | 1019.0 |
| 20260506210248 | 14 | 1 | 6.4 | 6.4 | 0.00 | 0.00 | 0.00 | 64 | 1018.6 |
| 20260506205747 | 14 | 6 | 4.8 | 6.4 | 0.00 | 0.00 | 0.00 | 68 | 1018.6 |
| 20260506205247 | 14 | 187 | 6.4 | 8.0 | 0.00 | 0.00 | 0.00 | 68 | 1018.6 |
| 20260506204747 | 14 | 6 | 3.2 | 3.2 | 0.00 | 0.00 | 0.00 | 68 | 1018.3 |
| 20260506204249 | 14 | 84 | 3.2 | 3.2 | 0.00 | 0.00 | 0.00 | 68 | 1018.6 |
| 20260506203748 | 15 | 342 | 3.2 | 3.2 | 0.00 | 0.00 | 0.00 | 65 | 1018.6 |
| 20260506203247 | 15 | 350 | 4.8 | 4.8 | 0.00 | 0.00 | 0.00 | 65 | 1018.3 |
| 20260506202747 | 15 | 348 | 4.8 | 4.8 | 0.00 | 0.00 | 0.00 | 63 | 1018.3 |
| 20260506202247 | 15 | 36 | 6.4 | 8.0 | 0.00 | 0.00 | 0.00 | 63 | 1018.3 |
| 20260506201748 | 15 | 311 | 3.2 | 3.2 | 0.00 | 0.00 | 0.00 | 65 | 1018.6 |
| 20260506201248 | 15 | 342 | 8.0 | 8.0 | 0.00 | 0.00 | 0.00 | 65 | 1018.3 |
| 20260506200747 | 15 | 300 | 4.8 | 4.8 | 0.00 | 0.00 | 0.00 | 64 | 1018.3 |
| 20260506200248 | 16 | 348 | 0.0 | 0.0 | 0.00 | 0.00 | 0.00 | 59 | 1018.3 |
| 20260506195747 | 16 | 294 | 3.2 | 3.2 | 0.00 | 0.00 | 0.00 | 57 | 1018.6 |
| 20260506195247 | 16 | 336 | 0.0 | 0.0 | 0.00 | 0.00 | 0.00 | 60 | 1018.3 |
| 20260506194748 | 16 | 260 | 0.0 | 0.0 | 0.00 | 0.00 | 0.00 | 59 | 1018.3 |
| 20260506194248 | 16 | 318 | 8.0 | 9.7 | 0.00 | 0.00 | 0.00 | 58 | 1018.3 |
| 20260506193749 | 16 | 339 | 14.5 | 14.5 | 0.00 | 0.00 | 0.00 | 58 | 1018.3 |
| 20260506193249 | 16 | 183 | 9.7 | 11.3 | 0.00 | 0.00 | 0.00 | 60 | 1018.3 |
| 20260506192748 | 16 | 310 | 8.0 | 8.0 | 0.00 | 0.00 | 0.00 | 59 | 1018.3 |
| 20260506192247 | 16 | 0 | 8.0 | 11.3 | 0.00 | 0.00 | 0.00 | 61 | 1018.3 |
| 20260506191748 | 16 | 344 | 11.3 | 12.9 | 0.00 | 0.00 | 0.00 | 61 | 1018.3 |
| 20260506191247 | 16 | 351 | 8.0 | 8.0 | 0.00 | 0.00 | 0.00 | 58 | 1018.3 |
| 20260506190747 | 16 | 342 | 8.0 | 8.0 | 0.00 | 0.00 | 0.00 | 58 | 1018.3 |
| 20260506190247 | 16 | 354 | 9.7 | 9.7 | 0.00 | 0.00 | 0.00 | 57 | 1018.3 |
| 20260506185747 | 16 | 348 | 6.4 | 6.4 | 0.00 | 0.00 | 0.00 | 56 | 1018.3 |
| 20260506185248 | 16 | 336 | 8.0 | 8.0 | 0.00 | 0.00 | 0.00 | 60 | 1018.3 |
| 20260506184748 | 16 | 288 | 1.6 | 1.6 | 0.00 | 0.00 | 0.00 | 60 | 1018.3 |
| 20260506184248 | 16 | 294 | 3.2 | 3.2 | 0.00 | 0.00 | 0.00 | 57 | 1018.3 |
| 20260506183747 | 16 | 276 | 8.0 | 8.0 | 0.00 | 0.00 | 0.00 | 56 | 1018.3 |
| 20260506183248 | 16 | 208 | 3.2 | 3.2 | 0.00 | 0.00 | 0.00 | 63 | 1018.3 |
| 20260506182747 | 15 | 120 | 1.6 | 1.6 | 0.00 | 0.00 | 0.00 | 61 | 1018.3 |
| 20260506182247 | 15 | 60 | 0.0 | 0.0 | 0.00 | 0.00 | 0.00 | 63 | 1017.9 |
| 20260506181747 | 15 | 1 | 4.8 | 4.8 | 0.00 | 0.00 | 0.00 | 65 | 1018.3 |
| 20260506181249 | 16 | 113 | 3.2 | 3.2 | 0.00 | 0.00 | 0.00 | 64 | 1018.3 |
| 20260506180748 | 16 | 42 | 3.2 | 3.2 | 0.00 | 0.00 | 0.00 | 62 | 1017.9 |
| 20260506180249 | 16 | 0 | 0.0 | 0.0 | 0.00 | 0.00 | 0.00 | 61 | 1017.9 |
| 20260506175747 | 16 | 276 | 3.2 | 3.2 | 0.00 | 0.00 | 0.00 | 62 | 1017.9 |
| 20260506175247 | 16 | 350 | 1.6 | 1.6 | 0.00 | 0.00 | 0.00 | 62 | 1017.9 |
| 20260506174749 | 16 | 66 | 3.2 | 3.2 | 0.00 | 0.00 | 0.00 | 62 | 1017.6 |
| 20260506174248 | 16 | 36 | 6.4 | 8.0 | 0.00 | 0.00 | 0.00 | 60 | 1017.6 |
| 20260506173747 | 16 | 72 | 4.8 | 4.8 | 0.00 | 0.00 | 0.00 | 63 | 1017.6 |
| 20260506173248 | 16 | 84 | 3.2 | 3.2 | 0.00 | 0.00 | 0.00 | 61 | 1017.6 |
| 20260506172747 | 17 | 276 | 3.2 | 3.2 | 0.00 | 0.00 | 0.00 | 59 | 1017.6 |
| 20260506172248 | 17 | 228 | 6.4 | 6.4 | 0.00 | 0.00 | 0.00 | 59 | 1017.3 |
| 20260506171747 | 17 | 206 | 6.4 | 8.0 | 0.00 | 0.00 | 0.00 | 59 | 1017.3 |
| 20260506171248 | 17 | 354 | 0.0 | 0.0 | 0.00 | 0.00 | 0.00 | 59 | 1016.9 |
| 20260506170747 | 17 | 294 | 14.5 | 14.5 | 0.00 | 0.00 | 0.00 | 58 | 1016.9 |
| 20260506170248 | 17 | 282 | 3.2 | 3.2 | 0.00 | 0.00 | 0.00 | 58 | 1016.9 |
| 20260506165748 | 17 | 242 | 9.7 | 11.3 | 0.00 | 0.00 | 0.00 | 59 | 1016.9 |
| 20260506165248 | 17 | 261 | 11.3 | 12.9 | 0.00 | 0.00 | 0.00 | 58 | 1017.3 |
| 20260506164748 | 17 | 312 | 6.4 | 8.0 | 0.00 | 0.00 | 0.00 | 58 | 1016.9 |
| 20260506164248 | 17 | 312 | 9.7 | 9.7 | 0.00 | 0.00 | 0.00 | 58 | 1016.9 |
| 20260506163747 | 17 | 282 | 12.9 | 14.5 | 0.00 | 0.00 | 0.00 | 58 | 1016.9 |
| 20260506163256 | 17 | 282 | 14.5 | 14.5 | 0.00 | 0.00 | 0.00 | 57 | 1016.9 |
| 20260506162749 | 17 | 312 | 11.3 | 12.9 | 0.00 | 0.00 | 0.00 | 57 | 1016.9 |
| 20260506162248 | 17 | 264 | 8.0 | 8.0 | 0.00 | 0.00 | 0.00 | 57 | 1016.9 |
| 20260506161748 | 17 | 282 | 4.8 | 4.8 | 0.00 | 0.00 | 0.00 | 56 | 1016.9 |
| 20260506161247 | 18 | 318 | 11.3 | 11.3 | 0.00 | 0.00 | 0.00 | 56 | 1016.9 |
| 20260506160750 | 18 | 288 | 4.8 | 4.8 | 0.00 | 0.00 | 0.00 | 56 | 1016.9 |
| 20260506160247 | 18 | 271 | 29.0 | 30.6 | 0.00 | 0.00 | 0.00 | 55 | 1016.9 |
| 20260506155748 | 18 | 260 | 19.3 | 22.5 | 0.00 | 0.00 | 0.00 | 54 | 1016.9 |
| 20260506155248 | 18 | 265 | 12.9 | 12.9 | 0.00 | 0.00 | 0.00 | 55 | 1016.6 |
| 20260506154747 | 18 | 277 | 11.3 | 11.3 | 0.00 | 0.00 | 0.00 | 54 | 1016.9 |
| 20260506154248 | 18 | 287 | 14.5 | 14.5 | 0.00 | 0.00 | 0.00 | 53 | 1016.6 |
| 20260506153748 | 18 | 248 | 17.7 | 17.7 | 0.00 | 0.00 | 0.00 | 53 | 1016.6 |
| 20260506153248 | 18 | 310 | 20.9 | 24.1 | 0.00 | 0.00 | 0.00 | 52 | 1016.3 |
| 20260506152751 | 19 | 270 | 12.9 | 12.9 | 0.00 | 0.00 | 0.00 | 53 | 1016.6 |
| 20260506152248 | 19 | 304 | 14.5 | 14.5 | 0.00 | 0.00 | 0.00 | 52 | 1016.6 |
| 20260506151748 | 19 | 332 | 11.3 | 12.9 | 0.00 | 0.00 | 0.00 | 51 | 1016.3 |
| 20260506151249 | 19 | 282 | 29.0 | 32.2 | 0.00 | 0.00 | 0.00 | 51 | 1016.3 |
| 20260506150748 | 19 | 264 | 19.3 | 20.9 | 0.00 | 0.00 | 0.00 | 51 | 1016.6 |